createdAt,value
2023-04-29T00:01:38.124Z,4.3
2023-04-29T00:03:18.672Z,4.3
2023-04-29T00:04:59.102Z,4.3
2023-04-29T00:06:39.288Z,4.3
2023-04-29T00:08:19.750Z,4.3
2023-04-29T00:10:00.159Z,4.3
2023-04-29T00:11:40.524Z,4.7
2023-04-29T00:13:20.941Z,4.7
2023-04-29T00:15:01.328Z,4.7
2023-04-29T00:16:41.779Z,4.7
2023-04-29T00:18:22.118Z,4.7
2023-04-29T00:20:02.529Z,4.7
2023-04-29T00:21:42.872Z,5.5
2023-04-29T00:23:23.316Z,5.5
2023-04-29T00:25:03.708Z,5.5
2023-04-29T00:26:44.106Z,5.5
2023-04-29T00:28:24.511Z,5.5
2023-04-29T00:30:04.878Z,5.5
2023-04-29T00:31:45.208Z,6.05
2023-04-29T00:33:25.636Z,6.05
2023-04-29T00:35:06.028Z,6.05
2023-04-29T00:36:46.477Z,6.05
2023-04-29T00:38:26.889Z,6.05
2023-04-29T00:40:07.216Z,6.05
2023-04-29T00:41:47.667Z,7.9
2023-04-29T00:43:27.981Z,7.9
2023-04-29T00:45:08.460Z,7.9
2023-04-29T00:46:49.037Z,7.9
2023-04-29T00:48:29.347Z,7.9
2023-04-29T00:50:09.707Z,7.9
2023-04-29T00:51:50.131Z,8.4
2023-04-29T00:53:30.482Z,8.4
2023-04-29T00:55:10.832Z,8.4
2023-04-29T00:56:51.276Z,8.4
2023-04-29T00:58:31.658Z,8.4
2023-04-29T01:00:12.035Z,8.4
2023-04-29T01:01:52.547Z,8.4
2023-04-29T01:03:33.120Z,9
2023-04-29T01:05:13.415Z,9
2023-04-29T01:06:53.770Z,9
2023-04-29T01:08:34.200Z,9
2023-04-29T01:10:14.561Z,9
2023-04-29T01:11:54.903Z,9
2023-04-29T01:13:35.319Z,9.8
2023-04-29T01:15:15.775Z,9.8
2023-04-29T01:16:56.116Z,9.8
2023-04-29T01:18:36.506Z,9.8
2023-04-29T01:20:16.893Z,9.8
2023-04-29T01:21:57.360Z,9.8
2023-04-29T01:23:37.768Z,6.5
2023-04-29T01:25:18.103Z,6.5
2023-04-29T01:26:58.448Z,6.5
2023-04-29T01:28:38.793Z,6.5
2023-04-29T01:30:19.260Z,6.5
2023-04-29T01:31:59.711Z,6.5
2023-04-29T01:33:40.070Z,5.6
2023-04-29T01:35:20.497Z,5.6
2023-04-29T01:37:00.820Z,5.6
2023-04-29T01:38:41.336Z,5.6
2023-04-29T01:40:21.593Z,5.6
2023-04-29T01:42:02.022Z,5.6
2023-04-29T01:43:42.397Z,5.9
2023-04-29T01:45:22.866Z,5.9
2023-04-29T01:47:03.332Z,5.9
2023-04-29T01:48:43.640Z,5.9
2023-04-29T01:50:23.923Z,5.9
2023-04-29T01:52:04.365Z,5.9
2023-04-29T01:53:44.813Z,5.2
2023-04-29T01:55:25.224Z,5.2
2023-04-29T01:57:05.639Z,5.2
2023-04-29T01:58:46.031Z,5.2
2023-04-29T02:00:26.454Z,5.2
2023-04-29T02:02:06.791Z,5.2
2023-04-29T02:03:47.363Z,6.4
2023-04-29T02:05:27.634Z,6.4
2023-04-29T02:07:08.023Z,6.4
2023-04-29T02:08:48.409Z,6.4
2023-04-29T02:10:28.858Z,6.4
2023-04-29T02:12:09.310Z,6.4
2023-04-29T02:13:49.701Z,6.7
2023-04-29T02:15:30.155Z,6.7
2023-04-29T02:17:10.507Z,6.7
2023-04-29T02:18:50.873Z,6.7
2023-04-29T02:20:31.264Z,6.7
2023-04-29T02:22:11.660Z,6.7
2023-04-29T02:23:52.161Z,8.2
2023-04-29T02:25:32.556Z,8.2
2023-04-29T02:27:13.040Z,8.2
2023-04-29T02:28:53.477Z,8.2
2023-04-29T02:30:33.894Z,8.2
2023-04-29T02:32:14.415Z,8.2
2023-04-29T02:33:54.653Z,7.7
2023-04-29T02:35:35.107Z,7.7
2023-04-29T02:37:15.521Z,7.7
2023-04-29T02:38:55.976Z,7.7
2023-04-29T02:40:36.361Z,7.7
2023-04-29T02:42:16.845Z,7.7
2023-04-29T02:43:57.164Z,5.9
2023-04-29T02:45:37.591Z,5.9
2023-04-29T02:47:17.973Z,5.9
2023-04-29T02:48:58.382Z,5.9
2023-04-29T02:50:38.773Z,5.9
2023-04-29T02:52:19.191Z,5.9
2023-04-29T02:53:59.571Z,8.2
2023-04-29T02:55:39.964Z,8.2
2023-04-29T02:57:20.380Z,8.2
2023-04-29T02:59:00.816Z,8.2
2023-04-29T03:00:41.178Z,8.2
2023-04-29T03:02:21.595Z,8.2
2023-04-29T03:04:02.196Z,6.5
2023-04-29T03:05:42.288Z,6.5
2023-04-29T03:07:22.696Z,6.5
2023-04-29T03:09:03.066Z,6.5
2023-04-29T03:10:43.404Z,6.5
2023-04-29T03:12:23.803Z,6.5
2023-04-29T03:14:04.200Z,7.9
2023-04-29T03:15:44.571Z,7.9
2023-04-29T03:17:25.016Z,7.9
2023-04-29T03:19:05.448Z,7.9
2023-04-29T03:20:45.846Z,7.9
2023-04-29T03:22:26.328Z,7.9
2023-04-29T03:24:06.769Z,8.7
2023-04-29T03:25:47.193Z,8.7
2023-04-29T03:27:27.619Z,8.7
2023-04-29T03:29:08.021Z,8.7
2023-04-29T03:30:48.464Z,8.7
2023-04-29T03:32:28.876Z,8.7
2023-04-29T03:34:09.226Z,8.4
2023-04-29T03:35:49.626Z,8.4
2023-04-29T03:37:30.050Z,8.4
2023-04-29T03:39:10.481Z,8.4
2023-04-29T03:40:50.826Z,8.4
2023-04-29T03:42:31.156Z,8.4
2023-04-29T03:44:11.534Z,7.2
2023-04-29T03:45:52.018Z,7.2
2023-04-29T03:47:32.378Z,7.2
2023-04-29T03:49:12.623Z,7.2
2023-04-29T03:50:52.948Z,7.2
2023-04-29T03:52:33.342Z,7.2
2023-04-29T03:54:13.691Z,7.7
2023-04-29T03:55:54.054Z,7.7
2023-04-29T03:57:34.460Z,7.7
2023-04-29T03:59:14.878Z,7.7
2023-04-29T04:00:55.263Z,7.7
2023-04-29T04:02:35.789Z,7.7
2023-04-29T04:04:16.146Z,11.3
2023-04-29T04:05:56.457Z,11.3
2023-04-29T04:07:36.872Z,11.3
2023-04-29T04:09:17.265Z,11.3
2023-04-29T04:10:57.665Z,11.3
2023-04-29T04:12:38.168Z,11.3
2023-04-29T04:14:18.540Z,12.3
2023-04-29T04:15:58.903Z,12.3
2023-04-29T04:17:39.349Z,12.3
2023-04-29T04:19:19.756Z,12.3
2023-04-29T04:21:00.177Z,12.3
2023-04-29T04:22:40.581Z,12.3
2023-04-29T04:24:21.039Z,13.6
2023-04-29T04:26:01.414Z,13.6
2023-04-29T04:27:41.819Z,13.6
2023-04-29T04:29:22.194Z,13.6
2023-04-29T04:31:02.625Z,13.6
2023-04-29T04:32:43.078Z,13.6
2023-04-29T04:34:23.454Z,9.4
2023-04-29T04:36:04.061Z,9.4
2023-04-29T04:37:44.372Z,9.4
2023-04-29T04:39:24.869Z,9.4
2023-04-29T04:41:05.293Z,9.4
2023-04-29T04:42:45.676Z,9.4
2023-04-29T04:44:26.009Z,11
2023-04-29T04:46:06.495Z,11
2023-04-29T04:47:46.978Z,11
2023-04-29T04:49:27.320Z,11
2023-04-29T04:51:07.664Z,11
2023-04-29T04:52:48.114Z,11
2023-04-29T04:54:28.480Z,13.2
2023-04-29T04:56:08.952Z,13.2
2023-04-29T04:57:49.477Z,13.2
2023-04-29T04:59:29.869Z,13.2
2023-04-29T05:01:10.280Z,13.2
2023-04-29T05:02:50.760Z,13.2
2023-04-29T05:04:31.157Z,10.7
2023-04-29T05:06:11.606Z,10.7
2023-04-29T05:07:51.935Z,10.7
2023-04-29T05:09:32.385Z,10.7
2023-04-29T05:11:12.697Z,10.7
2023-04-29T05:12:53.026Z,10.7
2023-04-29T05:14:33.434Z,8.8
2023-04-29T05:16:13.849Z,8.8
2023-04-29T05:17:54.231Z,8.8
2023-04-29T05:19:34.527Z,8.8
2023-04-29T05:21:17.083Z,8.8
2023-04-29T05:22:55.380Z,8.8
2023-04-29T05:24:35.843Z,8.3
2023-04-29T05:26:16.330Z,8.3
2023-04-29T05:27:56.704Z,8.3
2023-04-29T05:29:37.107Z,8.3
2023-04-29T05:31:17.564Z,8.3
2023-04-29T05:32:58.090Z,8.3
2023-04-29T05:34:38.466Z,9.7
2023-04-29T05:36:18.832Z,9.7
2023-04-29T05:37:59.178Z,9.7
2023-04-29T05:39:39.555Z,9.7
2023-04-29T05:41:19.898Z,9.7
2023-04-29T05:43:00.316Z,9.7
2023-04-29T05:44:40.603Z,7.7
2023-04-29T05:46:20.987Z,7.7
2023-04-29T05:48:01.376Z,7.7
2023-04-29T05:49:41.698Z,7.7
2023-04-29T05:51:22.115Z,7.7
2023-04-29T05:53:02.471Z,7.7
2023-04-29T05:54:42.912Z,8.1
2023-04-29T05:56:23.308Z,8.1
2023-04-29T05:58:03.723Z,8.1
2023-04-29T05:59:44.137Z,8.1
2023-04-29T06:01:24.607Z,8.1
2023-04-29T06:03:05.152Z,8.1
2023-04-29T06:04:45.732Z,5
2023-04-29T06:06:26.118Z,5
2023-04-29T06:08:06.297Z,5
2023-04-29T06:09:46.677Z,5
2023-04-29T06:11:27.103Z,5
2023-04-29T06:13:07.510Z,5
2023-04-29T06:14:47.954Z,4.6
2023-04-29T06:16:28.412Z,4.6
2023-04-29T06:18:08.822Z,4.6
2023-04-29T06:19:49.224Z,4.6
2023-04-29T06:21:29.672Z,4.6
2023-04-29T06:23:10.174Z,4.6
2023-04-29T06:24:50.610Z,3.1
2023-04-29T06:26:31.005Z,3.1
2023-04-29T06:28:11.478Z,3.1
2023-04-29T06:29:52.043Z,3.1
2023-04-29T06:31:32.404Z,3.1
2023-04-29T06:33:12.654Z,3.1
2023-04-29T06:34:53.033Z,3.1
2023-04-29T06:36:33.445Z,5.2
2023-04-29T06:38:13.904Z,5.2
2023-04-29T06:39:54.507Z,5.2
2023-04-29T06:41:34.787Z,5.2
2023-04-29T06:43:15.137Z,5.2
2023-04-29T06:44:55.520Z,5.2
2023-04-29T06:46:36.125Z,5.5
2023-04-29T06:48:16.395Z,5.5
2023-04-29T06:49:56.878Z,5.5
2023-04-29T06:51:37.208Z,5.5
2023-04-29T06:53:17.638Z,5.5
2023-04-29T06:54:58.061Z,5.5
2023-04-29T06:56:38.458Z,5.2
2023-04-29T06:58:18.759Z,5.2
2023-04-29T06:59:59.252Z,5.2
2023-04-29T07:01:41.176Z,5.2
2023-04-29T07:03:20.191Z,5.2
2023-04-29T07:05:00.578Z,5.2
2023-04-29T07:06:40.961Z,8.3
2023-04-29T07:08:21.366Z,8.3
2023-04-29T07:10:01.682Z,8.3
2023-04-29T07:11:42.050Z,8.3
2023-04-29T07:13:22.490Z,8.3
2023-04-29T07:15:02.882Z,8.3
2023-04-29T07:16:43.327Z,7.2
2023-04-29T07:18:23.743Z,7.2
2023-04-29T07:20:04.083Z,7.2
2023-04-29T07:21:44.406Z,7.2
2023-04-29T07:23:24.827Z,7.2
2023-04-29T07:25:05.173Z,7.2
2023-04-29T07:26:45.522Z,11.5
2023-04-29T07:28:25.988Z,11.5
2023-04-29T07:30:06.400Z,11.5
2023-04-29T07:31:46.803Z,11.5
2023-04-29T07:33:27.170Z,11.5
2023-04-29T07:35:07.581Z,11.5
2023-04-29T07:36:48.008Z,10.3
2023-04-29T07:38:28.377Z,10.3
2023-04-29T07:40:08.788Z,10.3
2023-04-29T07:41:49.080Z,10.3
2023-04-29T07:43:29.423Z,10.3
2023-04-29T07:45:09.785Z,10.3
2023-04-29T07:46:50.122Z,11.75
2023-04-29T07:48:30.630Z,11.75
2023-04-29T07:50:11.057Z,11.75
2023-04-29T07:51:51.482Z,11.75
2023-04-29T07:53:31.943Z,11.75
2023-04-29T07:55:12.263Z,11.75
2023-04-29T07:56:52.641Z,12.6
2023-04-29T07:58:33.032Z,12.6
2023-04-29T08:00:13.450Z,12.6
2023-04-29T08:01:53.845Z,12.6
2023-04-29T08:03:34.544Z,12.6
2023-04-29T08:05:15.028Z,12.6
2023-04-29T08:06:55.085Z,9.3
2023-04-29T08:08:35.483Z,9.3
2023-04-29T08:10:15.903Z,9.3
2023-04-29T08:11:56.366Z,9.3
2023-04-29T08:13:36.800Z,9.3
2023-04-29T08:15:17.235Z,9.3
2023-04-29T08:16:57.645Z,8.5
2023-04-29T08:18:38.144Z,8.5
2023-04-29T08:20:18.616Z,8.5
2023-04-29T08:21:59.070Z,8.5
2023-04-29T08:23:39.555Z,8.5
2023-04-29T08:25:19.983Z,9.7
2023-04-29T08:27:00.348Z,9.7
2023-04-29T08:28:40.679Z,9.7
2023-04-29T08:30:21.176Z,9.7
2023-04-29T08:32:01.567Z,9.7
2023-04-29T08:33:41.869Z,9.7
2023-04-29T08:35:22.354Z,9.7
2023-04-29T08:37:02.800Z,11.55
2023-04-29T08:38:43.227Z,11.55
2023-04-29T08:40:23.663Z,11.55
2023-04-29T08:42:04.097Z,11.55
2023-04-29T08:43:44.492Z,11.55
2023-04-29T08:45:25.016Z,11.55
2023-04-29T08:47:05.387Z,8.2
2023-04-29T08:48:46.049Z,8.2
2023-04-29T08:50:26.314Z,8.2
2023-04-29T08:52:06.772Z,8.2
2023-04-29T08:53:47.074Z,8.2
2023-04-29T08:55:27.587Z,8.2
2023-04-29T08:57:08.076Z,10.6
2023-04-29T08:58:48.447Z,10.6
2023-04-29T09:00:28.942Z,10.6
2023-04-29T09:02:09.398Z,10.6
2023-04-29T09:03:49.898Z,10.6
2023-04-29T09:05:30.235Z,10.6
2023-04-29T09:07:10.570Z,11.9
2023-04-29T09:08:51.077Z,11.9
2023-04-29T09:10:31.614Z,11.9
2023-04-29T09:12:12.006Z,11.9
2023-04-29T09:13:52.432Z,11.9
2023-04-29T09:15:32.932Z,11.9
2023-04-29T09:17:13.418Z,10.3
2023-04-29T09:18:53.831Z,10.3
2023-04-29T09:20:34.258Z,10.3
2023-04-29T09:22:14.535Z,10.3
2023-04-29T09:23:54.968Z,10.3
2023-04-29T09:25:35.365Z,10.3
2023-04-29T09:27:15.766Z,12
2023-04-29T09:28:56.175Z,12
2023-04-29T09:30:36.570Z,12
2023-04-29T09:32:16.961Z,12
2023-04-29T09:33:57.422Z,12
2023-04-29T09:35:37.902Z,12
2023-04-29T09:37:18.299Z,12.5
2023-04-29T09:38:58.721Z,12.5
2023-04-29T09:40:54.282Z,12.5
2023-04-29T09:42:19.597Z,12.5
2023-04-29T09:44:00.036Z,12.5
2023-04-29T09:45:40.379Z,12.5
2023-04-29T09:47:20.874Z,14.5
2023-04-29T09:49:01.184Z,14.5
2023-04-29T09:50:41.591Z,14.5
2023-04-29T09:52:22.000Z,14.5
2023-04-29T09:54:02.379Z,14.5
2023-04-29T09:55:42.822Z,14.5
2023-04-29T09:57:23.242Z,10.3
2023-04-29T09:59:03.625Z,10.3
2023-04-29T10:00:44.035Z,10.3
2023-04-29T10:02:24.490Z,10.3
2023-04-29T10:04:04.924Z,10.3
2023-04-29T10:05:45.299Z,10.3
2023-04-29T10:07:25.707Z,12.1
2023-04-29T10:09:06.074Z,12.1
2023-04-29T10:10:46.559Z,12.1
2023-04-29T10:12:26.915Z,12.1
2023-04-29T10:14:07.295Z,12.1
2023-04-29T10:15:47.757Z,12.1
2023-04-29T10:17:28.157Z,9.2
2023-04-29T10:19:08.516Z,9.2
2023-04-29T10:20:49.004Z,9.2
2023-04-29T10:22:29.437Z,9.2
2023-04-29T10:24:09.902Z,9.2
2023-04-29T10:25:50.295Z,9.2
2023-04-29T10:27:30.771Z,7.9
2023-04-29T10:29:11.049Z,7.9
2023-04-29T10:30:51.420Z,7.9
2023-04-29T10:32:39.970Z,7.9
2023-04-29T10:34:12.216Z,7.9
2023-04-29T10:35:52.657Z,7.9
2023-04-29T10:37:33.072Z,9.1
2023-04-29T10:39:13.505Z,9.1
2023-04-29T10:40:54.018Z,9.1
2023-04-29T10:42:34.406Z,9.1
2023-04-29T10:44:14.877Z,9.1
2023-04-29T10:45:55.274Z,9.1
2023-04-29T10:47:35.635Z,8.6
2023-04-29T10:49:16.192Z,8.6
2023-04-29T10:50:56.619Z,8.6
2023-04-29T10:52:37.114Z,8.6
2023-04-29T10:54:17.518Z,8.6
2023-04-29T10:55:57.967Z,8.6
2023-04-29T10:57:38.420Z,6.4
2023-04-29T10:59:18.762Z,6.4
2023-04-29T11:00:59.385Z,6.4
2023-04-29T11:02:39.843Z,6.4
2023-04-29T11:04:20.150Z,6.4
2023-04-29T11:06:00.484Z,6.4
2023-04-29T11:07:40.989Z,8.7
2023-04-29T11:09:21.376Z,8.7
2023-04-29T11:11:01.729Z,8.7
2023-04-29T11:12:42.122Z,8.7
2023-04-29T11:14:22.480Z,8.7
2023-04-29T11:16:02.916Z,8.7
2023-04-29T11:17:43.336Z,8.6
2023-04-29T11:19:23.725Z,8.6
2023-04-29T11:21:04.154Z,8.6
2023-04-29T11:22:44.671Z,8.6
2023-04-29T11:24:25.119Z,8.6
2023-04-29T11:26:05.634Z,8.6
2023-04-29T11:27:45.974Z,8.2
2023-04-29T11:29:26.414Z,8.2
2023-04-29T11:31:06.860Z,8.2
2023-04-29T11:32:47.253Z,8.2
2023-04-29T11:34:27.579Z,8.2
2023-04-29T11:36:07.984Z,8.2
2023-04-29T11:37:48.447Z,5
2023-04-29T11:39:28.933Z,5
2023-04-29T11:41:09.308Z,5
2023-04-29T11:42:49.843Z,5
2023-04-29T11:44:30.217Z,5
2023-04-29T11:46:10.647Z,5
2023-04-29T11:47:52.758Z,6.3
2023-04-29T11:49:31.591Z,6.3
2023-04-29T11:51:12.012Z,6.3
2023-04-29T11:52:52.433Z,6.3
2023-04-29T11:54:32.909Z,6.3
2023-04-29T11:56:13.320Z,6.3
2023-04-29T11:57:53.758Z,5.9
2023-04-29T11:59:34.146Z,5.9
2023-04-29T12:01:14.558Z,5.9
2023-04-29T12:02:54.990Z,5.9
2023-04-29T12:04:35.450Z,5.9
2023-04-29T12:06:15.705Z,5.9
2023-04-29T12:07:56.154Z,6.1
2023-04-29T12:09:36.454Z,6.1
2023-04-29T12:11:16.959Z,6.1
2023-04-29T12:12:57.355Z,6.1
2023-04-29T12:14:37.740Z,6.1
2023-04-29T12:16:18.146Z,6.1
2023-04-29T12:17:58.613Z,4.9
2023-04-29T12:19:39.070Z,4.9
2023-04-29T12:21:19.552Z,4.9
2023-04-29T12:22:59.973Z,4.9
2023-04-29T12:24:40.330Z,4.9
2023-04-29T12:26:20.775Z,4.9
2023-04-29T12:28:01.106Z,5
2023-04-29T12:29:41.578Z,5
2023-04-29T12:31:22.008Z,5
2023-04-29T12:33:02.408Z,5
2023-04-29T12:34:42.667Z,5
2023-04-29T12:36:23.116Z,5
2023-04-29T12:38:03.477Z,5.7
2023-04-29T12:39:43.869Z,5.7
2023-04-29T12:41:24.291Z,5.7
2023-04-29T12:43:04.759Z,5.7
2023-04-29T12:44:45.170Z,5.7
2023-04-29T12:46:25.615Z,5.7
2023-04-29T12:48:12.160Z,4.9
2023-04-29T12:49:46.434Z,4.9
2023-04-29T12:51:26.844Z,4.9
2023-04-29T12:53:07.235Z,4.9
2023-04-29T12:54:47.701Z,4.9
2023-04-29T12:56:28.065Z,4.9
2023-04-29T12:58:08.527Z,9.55
2023-04-29T12:59:48.994Z,9.55
2023-04-29T13:01:29.319Z,9.55
2023-04-29T13:03:09.806Z,9.55
2023-04-29T13:04:50.298Z,9.55
2023-04-29T13:06:30.586Z,9.55
2023-04-29T13:08:10.957Z,7.85
2023-04-29T13:09:51.408Z,7.85
2023-04-29T13:11:34.298Z,7.85
2023-04-29T13:13:12.123Z,7.85
2023-04-29T13:14:53.908Z,7.85
2023-04-29T13:16:32.958Z,7.85
2023-04-29T13:18:13.272Z,8.2
2023-04-29T13:19:54.327Z,8.2
2023-04-29T13:21:34.101Z,8.2
2023-04-29T13:23:14.449Z,8.2
2023-04-29T13:24:55.243Z,8.2
2023-04-29T13:26:35.326Z,8.2
2023-04-29T13:28:15.842Z,8
2023-04-29T13:29:56.217Z,8
2023-04-29T13:31:36.625Z,8
2023-04-29T13:33:18.412Z,8
2023-04-29T13:34:57.461Z,8
2023-04-29T13:36:37.789Z,8
2023-04-29T13:38:18.156Z,8.5
2023-04-29T13:39:58.540Z,8.5
2023-04-29T13:41:44.243Z,8.5
2023-04-29T13:43:31.117Z,8.5
2023-04-29T13:45:00.219Z,8.5
2023-04-29T13:46:40.273Z,8.5
2023-04-29T13:48:34.760Z,7.5
2023-04-29T13:53:51.085Z,7.5
2023-04-29T13:55:38.966Z,7.5
2023-04-29T13:57:34.561Z,7.5
2023-04-29T14:00:14.624Z,9.2
2023-04-29T14:03:24.576Z,9.2
2023-04-29T14:05:04.990Z,9.2
2023-04-29T14:06:45.385Z,9.2
2023-04-29T14:08:25.794Z,9.7
2023-04-29T14:10:06.158Z,9.7
2023-04-29T14:11:46.587Z,9.7
2023-04-29T14:13:26.964Z,9.7
2023-04-29T14:15:07.394Z,9.7
2023-04-29T14:16:47.819Z,9.7
2023-04-29T14:18:28.156Z,8.8
2023-04-29T14:20:08.592Z,8.8
2023-04-29T14:21:48.967Z,8.8
2023-04-29T14:23:29.440Z,8.8
2023-04-29T14:25:09.822Z,8.8
2023-04-29T14:26:50.239Z,8.8
2023-04-29T14:28:30.722Z,9.3
2023-04-29T14:30:11.202Z,9.3
2023-04-29T14:31:51.814Z,9.3
2023-04-29T14:33:32.025Z,9.3
2023-04-29T14:35:12.546Z,9.3
2023-04-29T14:36:52.898Z,9.3
2023-04-29T14:38:33.312Z,7.2
2023-04-29T14:40:13.776Z,7.2
2023-04-29T14:41:54.091Z,7.2
2023-04-29T14:43:34.475Z,7.2
2023-04-29T14:45:14.926Z,7.2
2023-04-29T14:46:55.360Z,7.2
2023-04-29T14:48:35.807Z,7.6
2023-04-29T14:50:16.265Z,7.6
2023-04-29T14:51:56.691Z,7.6
2023-04-29T14:53:37.034Z,7.6
2023-04-29T14:55:17.477Z,7.6
2023-04-29T14:56:58.006Z,7.6
2023-04-29T14:58:38.465Z,8.2
2023-04-29T15:00:18.809Z,8.2
2023-04-29T15:01:59.247Z,8.2
2023-04-29T15:03:44.024Z,8.2
2023-04-29T15:05:19.974Z,8.2
2023-04-29T15:07:00.395Z,8.2
2023-04-29T15:08:40.815Z,8.9
2023-04-29T15:10:21.271Z,8.9
2023-04-29T15:12:01.733Z,8.9
2023-04-29T15:13:42.238Z,8.9
2023-04-29T15:15:22.675Z,8.9
2023-04-29T15:17:03.056Z,8.9
2023-04-29T15:18:45.644Z,5.1
2023-04-29T15:20:23.869Z,5.1
2023-04-29T15:22:04.383Z,5.1
2023-04-29T15:23:44.827Z,5.1
2023-04-29T15:25:26.683Z,5.1
2023-04-29T15:27:05.683Z,5.1
2023-04-29T15:28:46.173Z,5
2023-04-29T15:30:26.419Z,5
2023-04-29T15:32:06.837Z,5
2023-04-29T15:33:47.208Z,5
2023-04-29T15:35:27.752Z,5
2023-04-29T15:37:08.091Z,5
2023-04-29T15:38:48.528Z,5.25
2023-04-29T15:40:28.926Z,5.25
2023-04-29T15:42:09.417Z,5.25
2023-04-29T15:43:49.778Z,5.25
2023-04-29T15:45:30.246Z,5.25
2023-04-29T15:47:10.612Z,5.25
2023-04-29T15:48:51.096Z,5.3
2023-04-29T15:50:31.495Z,5.3
2023-04-29T15:52:11.897Z,5.3
2023-04-29T15:53:52.264Z,5.3
2023-04-29T15:55:32.759Z,5.3
2023-04-29T15:57:13.241Z,5.3
2023-04-29T15:58:53.567Z,6.65
2023-04-29T16:00:33.972Z,6.65
2023-04-29T16:02:14.425Z,6.65
2023-04-29T16:03:54.992Z,6.65
2023-04-29T16:05:35.331Z,6.65
2023-04-29T16:07:15.758Z,6.65
2023-04-29T16:08:56.179Z,6.6
2023-04-29T16:10:36.668Z,6.6
2023-04-29T16:12:17.097Z,6.6
2023-04-29T16:13:57.516Z,6.6
2023-04-29T16:15:37.906Z,6.6
2023-04-29T16:17:18.428Z,6.6
2023-04-29T16:18:58.840Z,6.1
2023-04-29T16:20:39.216Z,6.1
2023-04-29T16:22:19.699Z,6.1
2023-04-29T16:24:00.207Z,6.1
2023-04-29T16:25:40.529Z,6.1
2023-04-29T16:27:20.979Z,6.1
2023-04-29T16:29:01.363Z,4.1
2023-04-29T16:30:41.733Z,4.1
2023-04-29T16:32:22.121Z,4.1
2023-04-29T16:34:02.539Z,4.1
2023-04-29T16:35:42.989Z,4.1
2023-04-29T16:37:23.400Z,4.1
2023-04-29T16:39:03.814Z,5.4
2023-04-29T16:40:44.241Z,5.4
2023-04-29T16:42:24.712Z,5.4
2023-04-29T16:44:05.109Z,5.4
2023-04-29T16:45:45.542Z,5.4
2023-04-29T16:47:25.985Z,5.4
2023-04-29T16:49:06.424Z,4.6
2023-04-29T16:50:48.557Z,4.6
2023-04-29T16:52:27.274Z,4.6
2023-04-29T16:54:07.708Z,4.6
2023-04-29T16:55:48.074Z,4.6
2023-04-29T16:57:28.487Z,4.6
2023-04-29T16:59:08.823Z,5.5
2023-04-29T17:00:49.166Z,5.5
2023-04-29T17:02:29.650Z,5.5
2023-04-29T17:04:10.040Z,5.5
2023-04-29T17:05:50.478Z,5.5
2023-04-29T17:07:30.958Z,5.5
2023-04-29T17:09:11.324Z,7.35
2023-04-29T17:10:51.764Z,7.35
2023-04-29T17:12:32.208Z,7.35
2023-04-29T17:14:12.690Z,7.35
2023-04-29T17:15:53.152Z,7.35
2023-04-29T17:17:33.633Z,7.35
2023-04-29T17:19:13.996Z,5.8
2023-04-29T17:20:54.492Z,5.8
2023-04-29T17:22:34.914Z,5.8
2023-04-29T17:24:15.295Z,5.8
2023-04-29T17:25:55.804Z,5.8
2023-04-29T17:27:36.226Z,5.8
2023-04-29T17:29:16.564Z,7.3
2023-04-29T17:30:56.922Z,7.3
2023-04-29T17:32:37.376Z,7.3
2023-04-29T17:34:17.779Z,7.3
2023-04-29T17:35:58.122Z,7.3
2023-04-29T17:37:38.485Z,7.3
2023-04-29T17:39:18.871Z,7.3
2023-04-29T17:40:59.224Z,7.3
2023-04-29T17:42:39.687Z,7.3
2023-04-29T17:44:21.871Z,7.3
2023-04-29T17:46:00.541Z,7.3
2023-04-29T17:47:41.018Z,7.3
2023-04-29T17:49:21.433Z,7.3
2023-04-29T17:51:01.879Z,7.3
2023-04-29T17:52:42.297Z,7.3
2023-04-29T17:54:22.762Z,7.3
2023-04-29T17:56:03.181Z,7.3
2023-04-29T17:57:43.487Z,7.3
2023-04-29T17:59:23.889Z,8.35
2023-04-29T18:01:04.397Z,8.35
2023-04-29T18:02:44.801Z,8.35
2023-04-29T18:04:25.064Z,8.35
2023-04-29T18:06:05.507Z,8.35
2023-04-29T18:07:45.799Z,8.35
2023-04-29T18:09:26.203Z,8.35
2023-04-29T18:11:06.676Z,10
2023-04-29T18:12:47.095Z,10
2023-04-29T18:14:27.482Z,10
2023-04-29T18:16:07.959Z,10
2023-04-29T18:17:48.399Z,10
2023-04-29T18:19:28.709Z,10
2023-04-29T18:21:09.188Z,10.2
2023-04-29T18:22:49.580Z,10.2
2023-04-29T18:24:30.007Z,10.2
2023-04-29T18:26:10.432Z,10.2
2023-04-29T18:27:52.692Z,10.2
2023-04-29T18:29:31.232Z,10.2
2023-04-29T18:31:11.682Z,8.3
2023-04-29T18:32:52.098Z,8.3
2023-04-29T18:34:32.544Z,8.3
2023-04-29T18:36:12.954Z,8.3
2023-04-29T18:37:53.355Z,8.3
2023-04-29T18:39:33.897Z,8.3
2023-04-29T18:41:14.129Z,9.8
2023-04-29T18:42:54.525Z,9.8
2023-04-29T18:44:34.895Z,9.8
2023-04-29T18:46:15.308Z,9.8
2023-04-29T18:47:55.594Z,9.8
2023-04-29T18:49:38.164Z,9.8
2023-04-29T18:51:16.356Z,5.3
2023-04-29T18:52:56.771Z,5.3
2023-04-29T18:54:37.210Z,5.3
2023-04-29T18:56:17.582Z,5.3
2023-04-29T18:57:58.037Z,5.3
2023-04-29T18:59:38.419Z,5.3
2023-04-29T19:01:18.840Z,3.2
2023-04-29T19:02:59.213Z,3.2
2023-04-29T19:04:39.610Z,3.2
2023-04-29T19:06:19.993Z,3.2
2023-04-29T19:08:00.419Z,3.2
2023-04-29T19:09:40.824Z,3.2
2023-04-29T19:11:21.233Z,3.1
2023-04-29T19:13:01.660Z,3.1
2023-04-29T19:14:42.075Z,3.1
2023-04-29T19:16:22.698Z,3.1
2023-04-29T19:18:03.028Z,3.1
2023-04-29T19:19:43.410Z,3.1
2023-04-29T19:21:23.784Z,3.2
2023-04-29T19:23:04.266Z,3.2
2023-04-29T19:24:44.706Z,3.2
2023-04-29T19:26:25.107Z,3.2
2023-04-29T19:28:05.481Z,3.2
2023-04-29T19:29:45.876Z,3.2
2023-04-29T19:31:26.389Z,4.2
2023-04-29T19:33:06.757Z,4.2
2023-04-29T19:34:47.140Z,4.2
2023-04-29T19:36:27.539Z,4.2
2023-04-29T19:38:07.964Z,4.2
2023-04-29T19:39:48.462Z,4.2
2023-04-29T19:41:28.886Z,4.1
2023-04-29T19:43:09.317Z,4.1
2023-04-29T19:44:49.757Z,4.1
2023-04-29T19:46:30.270Z,4.1
2023-04-29T19:48:10.622Z,4.1
2023-04-29T19:49:51.004Z,4.1
2023-04-29T19:51:31.394Z,2.4
2023-04-29T19:53:11.686Z,2.4
2023-04-29T19:54:52.114Z,2.4
2023-04-29T19:56:32.534Z,2.4
2023-04-29T19:58:12.942Z,2.4
2023-04-29T19:59:53.427Z,2.4
2023-04-29T20:01:33.865Z,4.3
2023-04-29T20:03:14.106Z,4.3
2023-04-29T20:04:54.495Z,4.3
2023-04-29T20:06:35.050Z,4.3
2023-04-29T20:08:15.316Z,4.3
2023-04-29T20:09:55.957Z,4.3
2023-04-29T20:11:36.120Z,4.5
2023-04-29T20:13:16.657Z,4.5
2023-04-29T20:14:57.094Z,4.5
2023-04-29T20:16:37.530Z,4.5
2023-04-29T20:18:17.918Z,4.5
2023-04-29T20:19:58.275Z,4.5
2023-04-29T20:21:38.681Z,3.1
2023-04-29T20:23:19.121Z,3.1
2023-04-29T20:24:59.462Z,3.1
2023-04-29T20:26:39.820Z,3.1
2023-04-29T20:28:20.241Z,3.1
2023-04-29T20:30:00.565Z,3.1
2023-04-29T20:31:41.032Z,3.7
2023-04-29T20:33:21.449Z,3.7
2023-04-29T20:35:01.779Z,3.7
2023-04-29T20:36:42.157Z,3.7
2023-04-29T20:38:23.405Z,3.7
2023-04-29T20:40:03.003Z,3.7
2023-04-29T20:41:43.360Z,3.6
2023-04-29T20:43:23.737Z,3.6
2023-04-29T20:45:04.067Z,3.6
2023-04-29T20:46:44.453Z,3.6
2023-04-29T20:48:24.894Z,3.6
2023-04-29T20:50:05.257Z,3.6
2023-04-29T20:51:45.702Z,3.5
2023-04-29T20:53:26.084Z,3.5
2023-04-29T20:55:06.479Z,3.5
2023-04-29T20:56:46.871Z,3.5
2023-04-29T20:58:27.329Z,3.5
2023-04-29T21:00:07.678Z,3.5
2023-04-29T21:01:48.202Z,6.1
2023-04-29T21:03:28.524Z,6.1
2023-04-29T21:05:09.181Z,6.1
2023-04-29T21:06:49.560Z,6.1
2023-04-29T21:08:29.917Z,6.1
2023-04-29T21:10:10.411Z,6.1
2023-04-29T21:11:50.812Z,5.6
2023-04-29T21:13:31.121Z,5.6
2023-04-29T21:15:11.426Z,5.6
2023-04-29T21:16:51.802Z,5.6
2023-04-29T21:18:32.295Z,5.6
2023-04-29T21:20:12.680Z,5.6
2023-04-29T21:21:53.065Z,6
2023-04-29T21:23:33.519Z,6
2023-04-29T21:25:13.896Z,6
2023-04-29T21:26:54.256Z,6
2023-04-29T21:28:34.659Z,6
2023-04-29T21:30:14.949Z,6
2023-04-29T21:31:55.412Z,7.1
2023-04-29T21:33:35.732Z,7.1
2023-04-29T21:35:16.165Z,7.1
2023-04-29T21:36:56.581Z,7.1
2023-04-29T21:38:36.946Z,7.1
2023-04-29T21:40:17.366Z,7.1
2023-04-29T21:41:57.776Z,4.6
2023-04-29T21:43:38.228Z,4.6
2023-04-29T21:45:18.635Z,4.6
2023-04-29T21:46:59.064Z,4.6
2023-04-29T21:48:39.464Z,4.6
2023-04-29T21:50:19.804Z,4.6
2023-04-29T21:52:00.207Z,4.4
2023-04-29T21:53:40.675Z,4.4
2023-04-29T21:55:21.091Z,4.4
2023-04-29T21:57:01.505Z,4.4
2023-04-29T21:58:42.712Z,4.4
2023-04-29T22:00:22.372Z,4.4
2023-04-29T22:02:02.785Z,0
2023-04-29T22:03:43.060Z,0
2023-04-29T22:05:23.539Z,0
2023-04-29T22:07:03.927Z,0
2023-04-29T22:08:44.354Z,0
2023-04-29T22:10:24.768Z,0
2023-04-29T22:12:05.131Z,4.7
2023-04-29T22:13:45.618Z,4.7
2023-04-29T22:15:29.180Z,4.7
2023-04-29T22:17:06.464Z,4.7
2023-04-29T22:18:46.921Z,4.7
2023-04-29T22:20:27.370Z,4.7
2023-04-29T22:22:07.742Z,4.8
2023-04-29T22:23:48.161Z,4.8
2023-04-29T22:25:28.604Z,4.8
2023-04-29T22:27:09.063Z,4.8
2023-04-29T22:28:49.523Z,4.8
2023-04-29T22:30:29.841Z,4.8
2023-04-29T22:32:10.315Z,4.7
2023-04-29T22:33:50.682Z,4.7
2023-04-29T22:35:31.049Z,4.7
2023-04-29T22:37:11.446Z,4.7
2023-04-29T22:38:51.872Z,4.7
2023-04-29T22:40:32.125Z,4.7
2023-04-29T22:42:12.461Z,4.8
2023-04-29T22:43:52.949Z,4.8
2023-04-29T22:45:33.385Z,4.8
2023-04-29T22:47:13.798Z,4.8
2023-04-29T22:48:54.264Z,4.8
2023-04-29T22:50:34.679Z,4.8
2023-04-29T22:52:15.084Z,4.75
2023-04-29T22:53:55.498Z,4.75
2023-04-29T22:55:35.992Z,4.75
2023-04-29T22:57:16.288Z,4.75
2023-04-29T22:58:56.684Z,4.75
2023-04-29T23:00:37.072Z,4.75
2023-04-29T23:02:17.552Z,4.1
2023-04-29T23:03:57.990Z,4.1
2023-04-29T23:05:38.397Z,4.1
2023-04-29T23:07:18.792Z,4.1